Estación Meteorológica Peña el Pijo (Robertgarden) [ 01/30/23 15:04:06 CET ]

Fecha Hora Presion(HPa) Temp (°C) Humedad % Rocio (°C) Viento ( m/s) Direccion Lluvia 1Hora(mm) Lluvia 24H(mm) LLuvia Total(mm)
2012-Sep-18 01:01:16 1012.000 14.9 41 1.7         178.19
2012-Sep-18 02:01:13 1011.900 13.8 45 2.0         178.19
2012-Sep-18 03:01:44 1011.700 12.5 48 1.7         178.19
2012-Sep-18 04:04:19 1011.100 12.0 49 1.6         178.19
2012-Sep-18 05:01:13 1010.500 12.1 49 1.7         178.19
2012-Sep-18 06:01:19 1010.100 11.3 51 1.5         178.19
2012-Sep-18 07:01:12 1010.300 11.4 52 1.9         178.19
2012-Sep-18 08:01:13 1010.500 11.4 54 2.4         178.19
2012-Sep-18 09:01:13 1010.600 12.3 55 3.5         178.19
2012-Sep-18 10:01:21 1011.200 17.2 53 7.5         178.19
2012-Sep-18 11:01:12 1011.300 21.4 47 9.6         178.19
2012-Sep-18 12:01:19 1011.300 25.9 35 9.2         178.19
2012-Sep-18 13:01:18 1011.300 28.2 27 7.2         178.19
2012-Sep-18 14:01:17 1011.500 29.4 21 4.7         178.19
2012-Sep-18 15:01:14 1011.600 28.3 22 4.4 0.2 SSE     178.19
2012-Sep-18 16:01:14 1010.500 28.1 24 5.4         178.19
2012-Sep-18 17:01:11 1009.400 28.1 21 3.7         178.19
2012-Sep-18 18:01:13 1010.000 28.3 21 3.8         178.19
2012-Sep-18 19:01:14 1009.100 27.0 21 2.8         178.19
2012-Sep-18 20:01:14 1009.500 26.8 22 3.2 2.7 SSW     178.19
2012-Sep-18 21:01:16 1009.200 25.9 22 2.4         178.19
2012-Sep-18 22:01:16 1009.900 22.0 29 3.1         178.19
2012-Sep-18 23:01:13 1010.200 19.9 34 3.5         178.19

Temperatura Máxima:29°    Temperatura Mínima:11°
Presión Máxima:1012.000 Hpa    Presión Mínima:1009.100 Hpa


Volver